Time;durP1;ratioP1;P1;durP2;ratioP2;P2;SDS_P1;SDS_P2;PMS_P1;PMS_P2;Temp;Humidity;BMP_temperature;BMP_pressure;BME280_temperature;BME280_humidity;BME280_pressure;Samples;Min_cycle;Max_cycle;Signal;HPM_P1;HPM_P2
2022/05/21 00:00:21;;;;;;;5.72;4.95;;;10.80;99.90;;;;;;5050723;28;20358;-73
2022/05/21 00:02:48;;;;;;;9.27;5.97;;;10.80;99.90;;;;;;5073502;28;20064;-74
2022/05/21 00:05:15;;;;;;;8.25;6.18;;;10.70;99.90;;;;;;5088494;28;20496;-74
2022/05/21 00:07:42;;;;;;;8.82;5.65;;;10.70;99.90;;;;;;5092884;28;20036;-73
2022/05/21 00:10:08;;;;;;;11.35;6.13;;;10.70;99.90;;;;;;5087546;28;20028;-73
2022/05/21 00:12:35;;;;;;;7.20;5.60;;;10.70;99.90;;;;;;5072584;28;20054;-73
2022/05/21 00:15:00;;;;;;;8.82;6.57;;;10.70;99.90;;;;;;5072007;28;20119;-73
2022/05/21 00:17:26;;;;;;;9.98;6.93;;;10.70;99.90;;;;;;5063830;28;20162;-73
2022/05/21 00:19:52;;;;;;;13.18;7.82;;;10.80;99.90;;;;;;5070451;28;20497;-73
2022/05/21 00:22:17;;;;;;;12.05;7.68;;;10.90;99.90;;;;;;5076802;28;20036;-73
2022/05/21 00:24:43;;;;;;;10.40;7.80;;;10.90;99.90;;;;;;5063338;28;20478;-73
2022/05/21 00:27:09;;;;;;;12.55;7.88;;;10.90;99.90;;;;;;5077886;28;20036;-73
2022/05/21 00:29:35;;;;;;;11.73;8.43;;;10.90;99.90;;;;;;5076771;28;20036;-73
2022/05/21 00:32:02;;;;;;;13.93;8.80;;;10.90;99.90;;;;;;5065337;28;20040;-73
2022/05/21 00:34:28;;;;;;;15.90;9.43;;;11.00;99.90;;;;;;5072113;28;20039;-73
2022/05/21 00:36:54;;;;;;;11.38;9.45;;;11.00;99.90;;;;;;5068799;28;20759;-73
2022/05/21 00:39:19;;;;;;;13.68;10.48;;;10.90;99.90;;;;;;5097843;28;20389;-73
2022/05/21 00:41:45;;;;;;;14.60;10.25;;;10.90;99.90;;;;;;5077765;28;20490;-73
2022/05/21 00:44:11;;;;;;;15.45;9.55;;;10.90;99.90;;;;;;5101731;28;20044;-74
2022/05/21 00:46:44;;;;;;;13.20;9.00;;;10.90;99.90;;;;;;5058798;28;20530;-74
2022/05/21 00:49:23;;;;;;;13.57;9.75;;;10.80;99.90;;;;;;5058709;28;20044;-74
2022/05/21 00:51:57;;;;;;;11.18;8.65;;;10.80;99.90;;;;;;5070963;28;20040;-74
2022/05/21 00:54:28;;;;;;;15.88;10.27;;;10.80;99.90;;;;;;5105322;28;20050;-74
2022/05/21 00:56:59;;;;;;;13.87;9.83;;;10.80;99.90;;;;;;5081835;28;20058;-74
2022/05/21 01:02:11;;;;;;;12.50;9.57;;;10.70;99.90;;;;;;5078171;28;20048;-74
2022/05/21 01:04:37;;;;;;;14.45;10.52;;;10.80;99.90;;;;;;5070635;28;20040;-74
2022/05/21 01:07:06;;;;;;;15.70;10.88;;;10.80;99.90;;;;;;5053747;28;20043;-74
2022/05/21 01:09:33;;;;;;;18.85;11.88;;;10.90;99.90;;;;;;5077783;28;20036;-74
2022/05/21 01:12:02;;;;;;;21.17;13.52;;;11.00;99.90;;;;;;5069428;28;20784;-74
2022/05/21 01:14:29;;;;;;;17.13;13.25;;;11.00;99.90;;;;;;5066499;28;20048;-74
2022/05/21 01:16:54;;;;;;;18.60;13.95;;;11.00;99.90;;;;;;5080655;28;20036;-74
2022/05/21 01:19:20;;;;;;;19.17;13.80;;;11.10;99.90;;;;;;5083969;28;20705;-73
2022/05/21 01:21:45;;;;;;;21.80;16.42;;;11.10;99.90;;;;;;5077516;28;20493;-73
2022/05/21 01:24:12;;;;;;;20.48;16.45;;;11.20;99.90;;;;;;5065149;28;20040;-73
2022/05/21 01:26:39;;;;;;;22.35;17.45;;;11.20;99.90;;;;;;5073478;28;20032;-73
2022/05/21 01:29:11;;;;;;;21.60;16.48;;;11.20;99.90;;;;;;5106191;28;20115;-73
2022/05/21 01:31:37;;;;;;;23.83;19.35;;;11.30;99.90;;;;;;5100344;28;20071;-74
2022/05/21 01:34:04;;;;;;;24.73;19.35;;;11.30;99.90;;;;;;5107479;28;20036;-74
2022/05/21 01:36:30;;;;;;;26.08;19.27;;;11.30;99.90;;;;;;5108287;28;20688;-74
2022/05/21 01:38:56;;;;;;;26.35;21.45;;;11.40;99.90;;;;;;5104188;28;20048;-74
2022/05/21 01:41:22;;;;;;;26.55;21.33;;;11.40;99.90;;;;;;5077987;28;20060;-74
2022/05/21 01:46:31;;;;;;;30.00;22.35;;;11.50;99.90;;;;;;5075861;28;20032;-74
2022/05/21 01:48:57;;;;;;;33.45;23.40;;;11.50;99.90;;;;;;5072283;28;20032;-74
2022/05/21 01:51:22;;;;;;;30.42;24.98;;;11.50;99.90;;;;;;5060833;28;20044;-74
2022/05/21 01:53:48;;;;;;;34.22;23.83;;;11.60;99.90;;;;;;5079357;28;20047;-73
2022/05/21 01:56:15;;;;;;;30.63;25.13;;;11.60;99.90;;;;;;5069506;28;20036;-73
2022/05/21 01:58:41;;;;;;;29.42;23.52;;;11.60;99.90;;;;;;5070981;28;20126;-73
2022/05/21 02:01:08;;;;;;;31.02;25.33;;;11.70;99.90;;;;;;5078762;28;20553;-73
2022/05/21 02:03:34;;;;;;;34.42;26.50;;;11.80;99.90;;;;;;5063670;28;20040;-73
2022/05/21 02:06:00;;;;;;;35.88;27.13;;;11.80;99.90;;;;;;5096932;28;20055;-73
2022/05/21 02:08:26;;;;;;;33.20;26.40;;;11.80;99.90;;;;;;5081061;28;20495;-73
2022/05/21 02:10:52;;;;;;;32.20;26.67;;;11.80;99.90;;;;;;5088735;28;20482;-73
2022/05/21 02:13:27;;;;;;;39.42;28.10;;;11.90;99.90;;;;;;5061493;28;20034;-72
2022/05/21 02:15:53;;;;;;;32.85;25.08;;;11.90;99.90;;;;;;5051910;28;20074;-72
2022/05/21 02:18:19;;;;;;;31.45;25.48;;;12.00;99.90;;;;;;5064806;28;20072;-71
2022/05/21 02:20:48;;;;;;;34.50;27.73;;;12.00;99.90;;;;;;5074249;28;20036;-72
2022/05/21 02:23:13;;;;;;;36.65;27.48;;;12.00;99.90;;;;;;5079525;28;20081;-73
2022/05/21 02:25:39;;;;;;;35.33;27.92;;;12.10;99.90;;;;;;5055447;28;20032;-73
2022/05/21 02:28:04;;;;;;;32.47;24.15;;;12.10;99.90;;;;;;5072549;28;20060;-73
2022/05/21 02:30:30;;;;;;;31.95;24.60;;;12.10;99.90;;;;;;5063334;28;20052;-73
2022/05/21 02:32:56;;;;;;;36.25;27.10;;;12.20;99.90;;;;;;5102057;28;20040;-73
2022/05/21 02:35:21;;;;;;;29.27;24.90;;;12.20;99.90;;;;;;5073597;28;20051;-73
2022/05/21 02:40:32;;;;;;;27.30;24.38;;;12.20;99.90;;;;;;5071514;28;20044;-73
2022/05/21 02:42:58;;;;;;;28.45;24.02;;;12.20;99.90;;;;;;5076334;28;20396;-73
2022/05/21 02:45:27;;;;;;;31.88;22.35;;;12.40;99.90;;;;;;5067117;28;20040;-73
2022/05/21 02:47:54;;;;;;;32.95;23.52;;;12.40;99.90;;;;;;5072443;28;20452;-73
2022/05/21 02:50:22;;;;;;;28.88;23.95;;;12.40;99.90;;;;;;5066265;28;20036;-73
2022/05/21 02:52:48;;;;;;;26.23;22.13;;;12.40;99.90;;;;;;5103823;28;20067;-73
2022/05/21 02:55:15;;;;;;;27.27;22.13;;;12.40;99.90;;;;;;5066071;28;20378;-72
2022/05/21 02:57:41;;;;;;;27.30;21.70;;;12.40;99.90;;;;;;5071190;28;20048;-72
2022/05/21 03:00:12;;;;;;;28.45;22.05;;;12.50;99.90;;;;;;5045866;28;20038;-72
2022/05/21 03:02:38;;;;;;;31.10;23.88;;;12.60;99.90;;;;;;5105824;28;20519;-72
2022/05/21 03:05:04;;;;;;;26.35;22.48;;;12.50;99.90;;;;;;5075131;28;20044;-74
2022/05/21 03:07:31;;;;;;;29.52;20.98;;;12.50;99.90;;;;;;5078513;28;20032;-73
2022/05/21 03:12:41;;;;;;;27.67;20.80;;;12.60;99.90;;;;;;5101827;28;20048;-73
2022/05/21 03:15:07;;;;;;;24.25;19.65;;;12.60;99.90;;;;;;5104153;28;20044;-73
2022/05/21 03:17:33;;;;;;;28.67;22.17;;;12.50;99.90;;;;;;5070917;28;20031;-73
2022/05/21 03:19:58;;;;;;;25.33;20.15;;;12.60;99.90;;;;;;5071223;28;20531;-72
2022/05/21 03:22:24;;;;;;;29.33;19.95;;;12.60;99.90;;;;;;5074596;28;20047;-73
2022/05/21 03:24:49;;;;;;;21.95;18.15;;;12.60;99.90;;;;;;5072953;28;20028;-71
2022/05/21 03:27:15;;;;;;;25.33;18.52;;;12.70;99.90;;;;;;5065922;28;20092;-74
2022/05/21 03:29:41;;;;;;;27.75;17.67;;;12.70;99.90;;;;;;5067992;28;20458;-74
2022/05/21 03:32:07;;;;;;;21.90;16.60;;;12.70;99.90;;;;;;5072767;28;20075;-73
2022/05/21 03:34:33;;;;;;;25.42;18.02;;;12.70;99.90;;;;;;5071726;28;20100;-73
2022/05/21 03:36:59;;;;;;;25.60;15.98;;;12.70;99.90;;;;;;5085002;28;20094;-73
2022/05/21 03:39:25;;;;;;;23.95;16.85;;;12.80;99.90;;;;;;5079386;28;20083;-73
2022/05/21 03:41:50;;;;;;;26.77;15.88;;;12.80;99.90;;;;;;5067997;28;20070;-72
2022/05/21 03:44:16;;;;;;;28.67;17.83;;;12.80;99.90;;;;;;5085921;28;20043;-72
2022/05/21 03:46:42;;;;;;;24.02;16.60;;;12.80;99.90;;;;;;5089999;28;20457;-73
2022/05/21 03:49:07;;;;;;;24.60;14.82;;;12.80;99.90;;;;;;5085555;28;20790;-73
2022/05/21 03:51:33;;;;;;;23.60;14.35;;;12.80;99.90;;;;;;5096504;28;20539;-72
2022/05/21 03:53:59;;;;;;;15.93;12.65;;;12.90;99.90;;;;;;5060242;28;20040;-72
2022/05/21 03:56:25;;;;;;;19.95;11.75;;;12.90;99.90;;;;;;5051054;28;20044;-72
2022/05/21 03:58:50;;;;;;;20.45;11.73;;;12.90;99.90;;;;;;5080100;28;20036;-73
2022/05/21 04:01:16;;;;;;;21.27;10.77;;;12.90;99.90;;;;;;5095150;28;20545;-73
2022/05/21 04:03:42;;;;;;;18.58;10.43;;;13.00;99.90;;;;;;5070434;28;20052;-73
2022/05/21 04:06:08;;;;;;;18.05;9.80;;;13.00;99.90;;;;;;5072287;28;20478;-73
2022/05/21 04:08:33;;;;;;;18.00;8.50;;;13.00;99.90;;;;;;5088626;28;20382;-73
2022/05/21 04:10:59;;;;;;;19.95;6.90;;;13.00;99.90;;;;;;5111756;28;20036;-73
2022/05/21 04:13:26;;;;;;;17.73;6.90;;;13.10;99.90;;;;;;5086636;28;20912;-72
2022/05/21 04:15:52;;;;;;;17.65;7.18;;;13.20;99.90;;;;;;5089418;28;20051;-73
2022/05/21 04:18:18;;;;;;;18.88;5.68;;;13.10;99.90;;;;;;5085799;28;20560;-73
2022/05/21 04:20:44;;;;;;;20.83;5.88;;;13.10;99.90;;;;;;5094483;28;20717;-73
2022/05/21 04:23:09;;;;;;;15.73;5.07;;;13.20;99.90;;;;;;5096844;28;20067;-73
2022/05/21 04:25:36;;;;;;;21.23;6.10;;;13.20;99.90;;;;;;5081494;28;20416;-73
2022/05/21 04:28:01;;;;;;;19.38;5.68;;;13.20;99.90;;;;;;5048689;28;20093;-73
2022/05/21 04:30:29;;;;;;;16.65;5.35;;;13.20;99.90;;;;;;5095759;27;20052;-74
2022/05/21 04:32:56;;;;;;;19.85;5.68;;;13.30;99.90;;;;;;5058470;28;20426;-73
2022/05/21 04:35:23;;;;;;;17.90;5.65;;;13.30;99.90;;;;;;5070738;28;20039;-73
2022/05/21 04:37:50;;;;;;;16.15;4.97;;;13.30;99.90;;;;;;5092230;28;20044;-73
2022/05/21 04:40:20;;;;;;;14.35;4.43;;;13.30;99.90;;;;;;5074703;28;20473;-72
2022/05/21 04:42:46;;;;;;;18.40;4.85;;;13.40;99.90;;;;;;5076519;28;20050;-72
2022/05/21 04:45:13;;;;;;;11.70;4.22;;;13.50;99.90;;;;;;5071434;28;20047;-73
2022/05/21 04:47:38;;;;;;;11.30;4.70;;;13.50;99.90;;;;;;5081155;28;20053;-73
2022/05/21 04:50:07;;;;;;;13.57;4.55;;;13.60;99.90;;;;;;5090522;28;20048;-73
2022/05/21 04:52:33;;;;;;;15.55;5.00;;;13.60;99.90;;;;;;5073070;28;20447;-73
2022/05/21 04:55:01;;;;;;;13.45;4.13;;;13.60;99.90;;;;;;5093573;28;20118;-73
2022/05/21 04:57:27;;;;;;;10.57;3.67;;;13.70;99.90;;;;;;5069460;28;20090;-74
2022/05/21 04:59:52;;;;;;;16.65;4.13;;;13.70;99.90;;;;;;5081681;28;20036;-73
2022/05/21 05:02:18;;;;;;;11.77;3.90;;;13.70;99.90;;;;;;5077320;28;20050;-73
2022/05/21 05:04:43;;;;;;;17.13;4.10;;;13.70;99.90;;;;;;5064526;28;20135;-73
2022/05/21 05:07:09;;;;;;;10.07;3.42;;;13.70;99.90;;;;;;5085392;28;20124;-73
2022/05/21 05:09:44;;;;;;;13.10;4.57;;;13.70;99.90;;;;;;5085984;28;20047;-73
2022/05/21 05:12:09;;;;;;;13.02;3.67;;;13.90;99.90;;;;;;5068979;28;20489;-73
2022/05/21 05:14:36;;;;;;;10.02;3.85;;;14.10;99.90;;;;;;5088946;28;20139;-73
2022/05/21 05:17:03;;;;;;;12.13;3.60;;;14.20;99.90;;;;;;5050902;28;20487;-73
2022/05/21 05:19:30;;;;;;;10.32;3.25;;;14.30;99.90;;;;;;5075540;28;20084;-73
2022/05/21 05:21:56;;;;;;;10.48;3.20;;;14.30;99.90;;;;;;5070232;28;20132;-74
2022/05/21 05:24:21;;;;;;;9.93;2.85;;;14.30;99.90;;;;;;5063926;28;20119;-74
2022/05/21 05:26:47;;;;;;;9.02;3.20;;;14.30;99.90;;;;;;5058618;28;20032;-73
2022/05/21 05:29:13;;;;;;;12.10;3.63;;;14.30;99.90;;;;;;5087763;28;20100;-73
2022/05/21 05:31:38;;;;;;;9.27;2.95;;;14.30;99.90;;;;;;5095610;28;20047;-73
2022/05/21 05:34:04;;;;;;;7.75;2.45;;;14.30;99.90;;;;;;5079024;28;20054;-73
2022/05/21 05:36:29;;;;;;;11.00;2.92;;;14.40;99.90;;;;;;5062023;28;20466;-74
2022/05/21 05:38:59;;;;;;;7.72;2.90;;;14.50;99.90;;;;;;5075153;28;20469;-73
2022/05/21 05:41:25;;;;;;;7.35;2.38;;;14.60;99.90;;;;;;5095100;28;20056;-73
2022/05/21 05:43:53;;;;;;;10.88;2.55;;;14.70;99.90;;;;;;5075987;28;20039;-73
2022/05/21 05:46:18;;;;;;;9.65;2.80;;;14.80;99.90;;;;;;5086266;28;20502;-73
2022/05/21 05:48:44;;;;;;;10.65;3.00;;;14.80;99.90;;;;;;5092202;28;20067;-74
2022/05/21 05:51:10;;;;;;;9.50;2.83;;;14.80;99.90;;;;;;5073677;28;20072;-73
2022/05/21 05:53:35;;;;;;;9.65;3.35;;;14.80;99.90;;;;;;5089057;28;20474;-73
2022/05/21 05:56:01;;;;;;;8.50;2.55;;;14.70;99.90;;;;;;5051977;28;20040;-73
2022/05/21 06:01:10;;;;;;;8.82;2.45;;;15.20;99.90;;;;;;5062644;28;20534;-73
2022/05/21 06:03:36;;;;;;;7.65;2.42;;;16.20;99.90;;;;;;5074414;28;20177;-73
2022/05/21 06:06:04;;;;;;;11.50;2.97;;;16.70;99.90;;;;;;5061818;28;20058;-72
2022/05/21 06:08:29;;;;;;;6.50;2.45;;;17.10;99.90;;;;;;5073243;28;20040;-73
2022/05/21 06:10:55;;;;;;;9.82;2.67;;;17.20;99.90;;;;;;5073925;28;20088;-74
2022/05/21 06:13:20;;;;;;;8.23;2.63;;;17.10;99.90;;;;;;5096795;27;20110;-74
2022/05/21 06:15:47;;;;;;;9.45;2.22;;;17.20;99.90;;;;;;5100503;28;20036;-73
2022/05/21 06:18:16;;;;;;;9.68;2.47;;;17.10;99.90;;;;;;5085579;28;20051;-73
2022/05/21 06:20:43;;;;;;;7.63;2.47;;;16.90;99.90;;;;;;5094656;28;20051;-73
2022/05/21 06:23:09;;;;;;;12.77;2.58;;;17.40;99.90;;;;;;5066661;28;20470;-73
2022/05/21 06:25:35;;;;;;;9.23;2.40;;;17.60;99.90;;;;;;5063328;28;20046;-73
2022/05/21 06:28:02;;;;;;;9.80;2.65;;;17.80;99.90;;;;;;5066820;28;20411;-73
2022/05/21 06:30:28;;;;;;;9.27;2.33;;;17.80;99.90;;;;;;5065095;28;20114;-74
2022/05/21 06:32:55;;;;;;;10.63;2.90;;;18.00;99.90;;;;;;5072673;28;20058;-73
2022/05/21 06:35:21;;;;;;;8.35;2.58;;;18.70;99.90;;;;;;5062228;28;20063;-73
2022/05/21 06:37:46;;;;;;;5.45;2.25;;;19.60;99.90;;;;;;5062079;28;20043;-73
2022/05/21 06:40:13;;;;;;;9.85;2.45;;;20.40;99.90;;;;;;5073819;28;20485;-73
2022/05/21 06:42:39;;;;;;;8.30;2.20;;;21.10;99.90;;;;;;5100522;28;20048;-72
2022/05/21 06:45:06;;;;;;;7.88;2.28;;;21.90;99.10;;;;;;5099088;28;20076;-73
2022/05/21 06:47:32;;;;;;;10.27;2.45;;;22.00;96.50;;;;;;5079572;28;20110;-73
2022/05/21 06:49:59;;;;;;;10.15;2.45;;;22.10;95.80;;;;;;5068314;28;20170;-72
2022/05/21 06:52:26;;;;;;;8.48;2.50;;;22.80;94.90;;;;;;5057546;28;20040;-72
2022/05/21 06:54:53;;;;;;;11.13;2.00;;;22.20;95.60;;;;;;5080823;28;20505;-73
2022/05/21 06:57:21;;;;;;;8.63;2.40;;;22.00;94.70;;;;;;5075283;28;20055;-73
2022/05/21 06:59:47;;;;;;;6.97;1.88;;;22.10;95.60;;;;;;5056587;28;20040;-73
2022/05/21 07:02:13;;;;;;;4.22;2.03;;;22.20;95.40;;;;;;5071791;28;20051;-73
2022/05/21 07:07:43;;;;;;;7.30;2.03;;;21.70;94.90;;;;;;5075333;28;20131;-72
2022/05/21 07:10:17;;;;;;;7.40;2.28;;;22.40;94.70;;;;;;5061440;28;20097;-73
2022/05/21 07:12:43;;;;;;;8.95;2.50;;;22.90;93.70;;;;;;5103768;28;20086;-72
2022/05/21 07:15:09;;;;;;;7.82;2.20;;;23.50;92.70;;;;;;5063017;28;20045;-72
2022/05/21 07:17:36;;;;;;;9.30;2.22;;;22.90;93.80;;;;;;5067748;28;20058;-73
2022/05/21 07:20:03;;;;;;;10.52;3.00;;;21.90;94.40;;;;;;5075629;28;20048;-73
2022/05/21 07:22:29;;;;;;;11.15;3.85;;;21.20;95.60;;;;;;5066431;22;20041;-76
2022/05/21 07:24:54;;;;;;;6.97;2.20;;;20.20;96.70;;;;;;5063576;28;20044;-77
2022/05/21 07:27:20;;;;;;;8.80;2.55;;;19.90;98.30;;;;;;5038325;28;20033;-77
2022/05/21 07:29:46;;;;;;;6.65;2.35;;;20.30;98.70;;;;;;5048758;28;20426;-76
2022/05/21 07:32:21;;;;;;;8.05;2.03;;;20.50;98.40;;;;;;5052119;28;20071;-77
2022/05/21 07:34:47;;;;;;;6.95;1.98;;;20.40;97.80;;;;;;5034198;28;20098;-77
2022/05/21 07:37:13;;;;;;;8.43;2.35;;;20.40;97.20;;;;;;5049761;28;20401;-76
2022/05/21 07:39:39;;;;;;;10.23;2.30;;;20.70;96.30;;;;;;5033915;28;20074;-76
2022/05/21 07:42:05;;;;;;;6.78;2.10;;;21.50;95.50;;;;;;5068529;28;20028;-75
2022/05/21 07:44:31;;;;;;;8.05;2.10;;;22.20;94.20;;;;;;5050641;28;20047;-75
2022/05/21 07:46:56;;;;;;;9.18;2.30;;;22.60;93.00;;;;;;5041593;28;20041;-76
2022/05/21 07:49:23;;;;;;;8.05;1.85;;;22.60;91.80;;;;;;5044430;28;20044;-75
2022/05/21 07:51:49;;;;;;;9.70;2.08;;;22.20;93.20;;;;;;5031278;28;20052;-75
2022/05/21 07:54:15;;;;;;;7.32;2.35;;;21.50;93.10;;;;;;5028286;28;20162;-76
2022/05/21 07:56:40;;;;;;;7.15;1.80;;;20.60;95.50;;;;;;5050941;28;20131;-75
2022/05/21 07:59:06;;;;;;;6.20;2.00;;;20.30;95.80;;;;;;5049510;28;20044;-77
2022/05/21 08:01:31;;;;;;;8.02;1.90;;;20.70;95.90;;;;;;5036034;28;20474;-76
2022/05/21 08:03:57;;;;;;;7.90;2.10;;;20.60;95.20;;;;;;5053080;28;20101;-76
2022/05/21 08:06:22;;;;;;;8.52;1.95;;;20.40;96.30;;;;;;5046153;28;20033;-74
2022/05/21 08:08:51;;;;;;;6.20;1.95;;;20.20;96.10;;;;;;5049806;28;20048;-76
2022/05/21 08:11:17;;;;;;;9.80;2.22;;;20.10;97.00;;;;;;5036875;28;20064;-77
2022/05/21 08:13:43;;;;;;;6.60;1.80;;;19.90;97.70;;;;;;5034014;28;20028;-76
2022/05/21 08:16:09;;;;;;;11.60;2.55;;;19.70;97.10;;;;;;5052374;28;20037;-77
2022/05/21 08:18:34;;;;;;;8.98;2.40;;;19.50;97.50;;;;;;5049865;28;20654;-76
2022/05/21 08:21:00;;;;;;;8.50;2.28;;;19.00;98.10;;;;;;5044727;28;20063;-75
2022/05/21 08:28:54;;;;;;;9.63;2.28;;;18.80;99.40;;;;;;5046441;28;20123;-76
2022/05/21 08:31:20;;;;;;;6.93;1.77;;;18.70;99.70;;;;;;5044353;28;20438;-75
2022/05/21 08:33:45;;;;;;;7.32;1.88;;;18.60;99.90;;;;;;5033338;28;20044;-75
2022/05/21 08:36:12;;;;;;;7.38;1.92;;;18.60;99.90;;;;;;5067562;28;20032;-75
2022/05/21 08:38:37;;;;;;;8.25;2.15;;;18.60;99.20;;;;;;5038496;28;20071;-75
2022/05/21 08:41:11;;;;;;;6.82;2.13;;;18.60;99.90;;;;;;5041394;28;20064;-76
2022/05/21 08:43:54;;;;;;;5.90;1.92;;;18.70;98.50;;;;;;5049334;28;20045;-76
2022/05/21 08:46:43;;;;;;;9.52;2.20;;;18.70;99.30;;;;;;5051656;28;20040;-76
2022/05/21 08:49:34;;;;;;;6.75;2.03;;;18.90;99.90;;;;;;5049750;28;20486;-75
2022/05/21 08:52:28;;;;;;;14.48;3.35;;;19.00;99.50;;;;;;5053575;28;20109;-76
2022/05/21 08:54:55;;;;;;;9.05;2.60;;;19.30;98.90;;;;;;5052373;28;20082;-76
2022/05/21 08:57:32;;;;;;;6.00;1.60;;;19.30;99.10;;;;;;5036471;28;20040;-76
2022/05/21 09:00:12;;;;;;;11.73;2.25;;;19.40;99.20;;;;;;5045258;28;20045;-77
2022/05/21 09:02:38;;;;;;;6.70;2.13;;;19.50;98.20;;;;;;5053982;28;20593;-75
2022/05/21 09:05:07;;;;;;;8.20;1.77;;;19.40;98.10;;;;;;5045862;28;20055;-76
2022/05/21 09:08:14;;;;;;;6.45;1.48;;;19.30;97.80;;;;;;5037415;28;20033;-77
2022/05/21 09:11:03;;;;;;;6.90;2.03;;;18.90;98.70;;;;;;5049843;28;20049;-76
2022/05/21 09:13:41;;;;;;;9.07;2.05;;;18.90;99.90;;;;;;5052634;28;20115;-75
2022/05/21 09:18:55;;;;;;;8.77;1.95;;;18.70;99.80;;;;;;5045981;28;20099;-77
2022/05/21 09:21:24;;;;;;;6.72;1.92;;;18.70;99.20;;;;;;5052253;28;20032;-76
2022/05/21 09:23:49;;;;;;;6.28;1.95;;;18.60;99.90;;;;;;5036731;28;20102;-77
2022/05/21 09:26:16;;;;;;;6.50;2.28;;;18.70;99.60;;;;;;5030730;28;20865;-75
2022/05/21 09:28:42;;;;;;;8.65;2.10;;;18.70;99.80;;;;;;5066288;28;20409;-76
2022/05/21 09:31:09;;;;;;;9.00;2.15;;;18.90;99.90;;;;;;5054658;28;20040;-76
2022/05/21 09:33:45;;;;;;;6.63;1.83;;;19.00;99.90;;;;;;5055766;28;20039;-76
2022/05/21 09:36:18;;;;;;;5.38;1.85;;;19.10;98.70;;;;;;5056301;28;20043;-76
2022/05/21 09:38:53;;;;;;;5.40;1.67;;;19.30;98.50;;;;;;5052415;28;20045;-77
2022/05/21 09:41:28;;;;;;;6.93;2.10;;;19.40;98.80;;;;;;5042728;28;20041;-75
2022/05/21 09:47:06;;;;;;;6.32;2.17;;;19.70;97.60;;;;;;5063932;28;20045;-75
2022/05/21 09:49:33;;;;;;;7.43;2.05;;;19.60;97.60;;;;;;5050034;28;20032;-75
2022/05/21 09:52:02;;;;;;;6.10;1.92;;;19.40;97.50;;;;;;5047484;28;20131;-76
2022/05/21 09:54:33;;;;;;;4.57;1.42;;;19.30;97.50;;;;;;5053003;28;20059;-76
2022/05/21 09:56:59;;;;;;;7.63;1.70;;;19.00;98.10;;;;;;5035997;28;20094;-75
2022/05/21 09:59:31;;;;;;;5.53;1.73;;;18.60;99.00;;;;;;5050089;28;20035;-75
2022/05/21 10:02:01;;;;;;;6.53;1.85;;;18.60;99.30;;;;;;5040413;28;20740;-75
2022/05/21 10:04:41;;;;;;;6.95;1.90;;;18.80;99.20;;;;;;5052053;28;20110;-75
2022/05/21 10:13:12;;;;;;;8.80;1.80;;;19.10;98.10;;;;;;5047918;28;20037;-76
2022/05/21 10:15:43;;;;;;;8.88;1.80;;;19.00;98.60;;;;;;5048379;28;20115;-74
2022/05/21 10:18:37;;;;;;;8.25;1.92;;;19.20;97.10;;;;;;5043158;28;20036;-74
2022/05/21 10:21:38;;;;;;;6.88;1.83;;;19.20;97.30;;;;;;5042445;28;20048;-76
2022/05/21 10:24:42;;;;;;;7.38;1.77;;;19.50;97.10;;;;;;5033979;28;20487;-75
2022/05/21 10:27:38;;;;;;;5.82;1.60;;;19.60;97.50;;;;;;5048747;28;20083;-75
2022/05/21 10:30:17;;;;;;;6.30;1.45;;;19.60;95.80;;;;;;5026774;28;20779;-74
2022/05/21 10:33:12;;;;;;;6.78;1.60;;;19.40;96.70;;;;;;5027882;28;20032;-76
2022/05/21 10:35:55;;;;;;;7.47;1.70;;;19.10;96.60;;;;;;5046636;28;20037;-76
2022/05/21 10:38:36;;;;;;;7.95;1.88;;;19.00;97.90;;;;;;5034254;28;20078;-75
2022/05/21 10:41:23;;;;;;;6.25;1.52;;;19.10;98.50;;;;;;5031850;28;20447;-76
2022/05/21 10:44:12;;;;;;;6.90;1.65;;;19.20;97.50;;;;;;5058333;28;20131;-74
2022/05/21 10:46:56;;;;;;;5.88;1.42;;;19.20;97.90;;;;;;5051402;28;20049;-75
2022/05/21 10:49:57;;;;;;;6.68;1.65;;;19.10;97.20;;;;;;5056670;28;20044;-75
2022/05/21 10:52:31;;;;;;;7.13;1.90;;;19.10;97.40;;;;;;5049355;28;20547;-76
2022/05/21 10:55:26;;;;;;;6.30;1.40;;;19.20;97.20;;;;;;5046082;28;20040;-76
2022/05/21 10:58:34;;;;;;;4.75;1.40;;;19.20;97.50;;;;;;5052458;28;20041;-76
2022/05/21 11:01:34;;;;;;;4.85;1.55;;;19.00;95.80;;;;;;5036136;28;20060;-76
2022/05/21 11:04:01;;;;;;;10.15;2.17;;;18.70;96.90;;;;;;5046396;28;20081;-76
2022/05/21 11:06:39;;;;;;;5.68;1.58;;;18.70;97.70;;;;;;5056533;28;20032;-76
2022/05/21 11:09:34;;;;;;;5.97;1.65;;;18.50;98.00;;;;;;5065030;28;20055;-76
2022/05/21 11:12:13;;;;;;;5.78;1.50;;;18.20;98.90;;;;;;5035462;28;20059;-76
2022/05/21 11:15:07;;;;;;;5.40;1.58;;;18.20;99.50;;;;;;5053209;28;20045;-75
2022/05/21 11:18:05;;;;;;;8.40;1.50;;;18.20;99.50;;;;;;5046570;28;20090;-76
2022/05/21 11:20:42;;;;;;;5.60;1.45;;;18.50;99.90;;;;;;5046856;28;20041;-75
2022/05/21 11:23:26;;;;;;;5.25;1.35;;;18.70;98.60;;;;;;5038775;28;20048;-75
2022/05/21 11:26:18;;;;;;;7.22;1.63;;;18.80;98.20;;;;;;5048676;28;20127;-74
2022/05/21 11:28:53;;;;;;;6.30;1.60;;;19.10;98.30;;;;;;5041806;28;20051;-74
2022/05/21 11:37:21;;;;;;;5.38;1.30;;;19.40;97.10;;;;;;5067414;28;20040;-74
2022/05/21 11:39:49;;;;;;;6.75;1.52;;;19.60;97.20;;;;;;5025750;28;20466;-75
2022/05/21 11:42:17;;;;;;;4.82;1.23;;;19.50;97.00;;;;;;5037337;28;20040;-74
2022/05/21 11:44:55;;;;;;;6.68;1.50;;;19.60;96.80;;;;;;5041093;28;20049;-75
2022/05/21 11:47:21;;;;;;;5.55;1.55;;;19.40;96.90;;;;;;5039981;28;20116;-75
2022/05/21 11:50:18;;;;;;;7.13;1.58;;;19.40;96.80;;;;;;5032168;28;20486;-75
2022/05/21 11:52:52;;;;;;;4.68;1.40;;;19.20;95.70;;;;;;5032749;28;20552;-75
2022/05/21 11:55:21;;;;;;;5.03;1.98;;;19.10;96.60;;;;;;5051800;28;20546;-75
2022/05/21 11:57:53;;;;;;;5.18;1.60;;;19.20;96.80;;;;;;5030193;28;20036;-74
2022/05/21 12:00:22;;;;;;;6.13;1.67;;;19.40;96.60;;;;;;5042911;28;20041;-74
2022/05/21 12:02:53;;;;;;;6.22;1.70;;;19.70;96.80;;;;;;5043313;28;20440;-74
2022/05/21 12:05:46;;;;;;;4.97;1.42;;;19.80;96.70;;;;;;5047371;28;20033;-74
2022/05/21 12:08:17;;;;;;;5.35;1.40;;;19.90;95.40;;;;;;5030612;28;20055;-74
2022/05/21 12:11:20;;;;;;;6.05;2.03;;;19.70;94.40;;;;;;5035411;28;20115;-74
2022/05/21 12:13:58;;;;;;;5.38;1.58;;;19.80;96.40;;;;;;5054377;28;20075;-75
2022/05/21 12:16:24;;;;;;;7.13;1.65;;;19.50;96.00;;;;;;5042996;28;20432;-74
2022/05/21 12:18:57;;;;;;;8.27;1.92;;;19.40;94.90;;;;;;5031816;28;20053;-74
2022/05/21 12:21:36;;;;;;;4.65;1.48;;;19.20;95.60;;;;;;5046012;28;20051;-74
2022/05/21 12:24:09;;;;;;;5.38;1.35;;;19.20;95.70;;;;;;5043651;28;20056;-76
2022/05/21 12:26:39;;;;;;;7.10;2.03;;;19.10;96.10;;;;;;5052274;28;20046;-75
2022/05/21 12:29:24;;;;;;;6.82;1.45;;;19.40;97.00;;;;;;5050073;28;20041;-75
2022/05/21 12:31:56;;;;;;;4.25;1.60;;;19.70;96.40;;;;;;5049580;28;20048;-75
2022/05/21 12:34:46;;;;;;;5.05;1.63;;;19.90;96.00;;;;;;5038485;28;20119;-76
2022/05/21 12:37:30;;;;;;;4.30;1.42;;;20.10;95.40;;;;;;5051429;28;20052;-75
2022/05/21 12:40:29;;;;;;;3.65;1.63;;;20.50;95.30;;;;;;5049905;28;20127;-75
2022/05/21 12:43:13;;;;;;;2.70;1.10;;;20.60;94.30;;;;;;5045772;28;20044;-74
2022/05/21 12:45:44;;;;;;;4.32;1.40;;;20.80;93.40;;;;;;5047153;28;20037;-73
2022/05/21 12:48:29;;;;;;;3.25;1.10;;;20.90;93.20;;;;;;5050060;28;20052;-74
2022/05/21 12:51:04;;;;;;;4.45;1.48;;;20.90;93.20;;;;;;5053735;28;20036;-75
2022/05/21 12:53:45;;;;;;;5.05;1.33;;;21.10;92.60;;;;;;5053664;28;20040;-74
2022/05/21 12:56:25;;;;;;;5.70;1.25;;;21.20;93.50;;;;;;5031278;28;20080;-74
2022/05/21 12:59:22;;;;;;;5.68;1.58;;;21.30;92.80;;;;;;5045789;28;20052;-75
2022/05/21 13:02:01;;;;;;;5.03;1.17;;;21.30;92.80;;;;;;5045712;28;20046;-75
2022/05/21 13:04:48;;;;;;;4.82;1.63;;;21.50;93.10;;;;;;5053051;28;20036;-75
2022/05/21 13:07:34;;;;;;;5.85;1.40;;;21.50;92.60;;;;;;5036542;28;20040;-75
2022/05/21 13:10:04;;;;;;;4.70;1.00;;;21.70;92.70;;;;;;5054545;28;20481;-74
2022/05/21 13:12:39;;;;;;;5.47;1.50;;;21.70;92.00;;;;;;5036941;28;20032;-73
2022/05/21 13:15:13;;;;;;;5.05;1.33;;;21.60;90.70;;;;;;5050160;28;20470;-73
2022/05/21 13:18:02;;;;;;;5.45;1.45;;;21.50;91.70;;;;;;5050067;28;20106;-74
2022/05/21 13:20:39;;;;;;;5.90;1.95;;;21.10;90.40;;;;;;5049181;28;20169;-74
2022/05/21 13:23:37;;;;;;;4.95;1.40;;;21.20;92.00;;;;;;5027164;28;20058;-73
2022/05/21 13:26:03;;;;;;;6.53;1.35;;;21.30;92.90;;;;;;5030310;28;20033;-74
2022/05/21 13:28:29;;;;;;;5.63;1.67;;;21.30;92.10;;;;;;5030923;28;20549;-74
2022/05/21 13:30:54;;;;;;;5.90;1.63;;;21.20;92.60;;;;;;5031157;28;20050;-73
2022/05/21 13:33:36;;;;;;;5.28;1.10;;;21.20;90.70;;;;;;5026502;28;20505;-74
2022/05/21 13:36:13;;;;;;;6.20;1.30;;;21.00;90.90;;;;;;5028615;28;20116;-75
2022/05/21 13:38:40;;;;;;;5.05;1.17;;;20.60;90.40;;;;;;5030180;28;20095;-74